Time;durP1;ratioP1;P1;durP2;ratioP2;P2;SDS_P1;SDS_P2;PMS_P1;PMS_P2;Temp;Humidity;BMP_temperature;BMP_pressure;BME280_temperature;BME280_humidity;BME280_pressure;Samples;Min_cycle;Max_cycle;Signal;HPM_P1;HPM_P2
2021/12/25 00:01:20;;;;;;;3.10;0.98;;;0.40;70.20;;;;;;6091200;23;91001;-72
2021/12/25 00:03:53;;;;;;;2.75;0.90;;;0.50;69.50;;;;;;6068546;23;88661;-71
2021/12/25 00:06:21;;;;;;;2.13;0.95;;;0.40;69.40;;;;;;6068174;23;88555;-72
2021/12/25 00:08:48;;;;;;;2.92;0.93;;;0.30;69.60;;;;;;6091685;23;89263;-72
2021/12/25 00:11:15;;;;;;;3.80;1.42;;;0.30;68.60;;;;;;6068376;23;88234;-72
2021/12/25 00:13:42;;;;;;;1.52;0.85;;;0.30;69.40;;;;;;6068543;23;88674;-72
2021/12/25 00:16:10;;;;;;;2.38;0.90;;;0.20;69.30;;;;;;6090673;23;91317;-72
2021/12/25 00:18:41;;;;;;;2.30;1.10;;;0.20;69.70;;;;;;6091279;23;89127;-71
2021/12/25 00:21:09;;;;;;;3.17;1.08;;;0.10;69.70;;;;;;6066731;23;88338;-71
2021/12/25 00:23:37;;;;;;;1.48;0.85;;;0.10;70.70;;;;;;6066006;23;103840;-72
2021/12/25 00:26:24;;;;;;;2.13;1.00;;;0.10;72.00;;;;;;6090923;23;91206;-71
2021/12/25 00:29:04;;;;;;;4.22;1.38;;;0.00;73.30;;;;;;6068500;23;87944;-72
2021/12/25 00:32:09;;;;;;;2.58;1.10;;;0.00;74.50;;;;;;6091143;23;90906;-70
2021/12/25 00:34:22;;;;;;;2.83;1.20;;;0.00;75.80;;;;;;6068132;23;87888;-71
2021/12/25 00:36:50;;;;;;;3.42;1.50;;;-0.10;75.70;;;;;;6067550;23;90607;-70
2021/12/25 00:39:17;;;;;;;4.45;1.55;;;-0.10;75.70;;;;;;6093688;23;89306;-71
2021/12/25 00:41:44;;;;;;;3.50;1.13;;;-0.10;75.70;;;;;;6071510;23;89220;-72
2021/12/25 00:44:11;;;;;;;2.67;1.35;;;-0.10;74.70;;;;;;6071120;23;90350;-70
2021/12/25 00:46:39;;;;;;;1.85;1.10;;;-0.10;74.60;;;;;;6071354;23;89287;-76
2021/12/25 00:49:07;;;;;;;2.38;1.20;;;-0.20;74.60;;;;;;6071271;23;87955;-78
2021/12/25 00:51:33;;;;;;;2.25;1.08;;;-0.20;74.10;;;;;;6097691;23;88157;-78
2021/12/25 00:54:01;;;;;;;2.00;1.33;;;-0.30;73.80;;;;;;6097681;23;88432;-77
2021/12/25 00:56:28;;;;;;;2.80;0.88;;;-0.40;73.60;;;;;;6071117;23;89476;-77
2021/12/25 00:58:55;;;;;;;0.93;0.88;;;-0.30;73.40;;;;;;6071780;23;88986;-78
2021/12/25 01:01:22;;;;;;;3.00;0.98;;;-0.40;73.10;;;;;;6095550;23;90590;-77
2021/12/25 01:03:49;;;;;;;8.98;1.10;;;-0.50;72.20;;;;;;6095385;23;90966;-78
2021/12/25 01:06:16;;;;;;;2.30;1.27;;;-0.50;72.00;;;;;;6094809;23;89483;-78
2021/12/25 01:08:44;;;;;;;2.08;0.88;;;-0.50;71.70;;;;;;6095695;23;89062;-77
2021/12/25 01:11:14;;;;;;;1.52;0.90;;;-0.50;72.40;;;;;;6095138;23;90771;-78
2021/12/25 01:13:51;;;;;;;4.43;1.17;;;-0.50;72.90;;;;;;6095531;23;91205;-79
2021/12/25 01:28:14;;;;;;;1.10;0.85;;;-0.80;72.30;;;;;;6072181;23;90018;-76
2021/12/25 01:33:56;;;;;;;2.45;1.05;;;-0.80;72.60;;;;;;6074599;23;88823;-77
2021/12/25 01:48:16;;;;;;;1.77;1.05;;;-1.00;73.70;;;;;;6077585;23;90610;-76
2021/12/25 01:50:44;;;;;;;1.63;1.10;;;-1.00;73.30;;;;;;6046611;23;91148;-76
2021/12/25 01:53:11;;;;;;;5.93;1.45;;;-1.10;73.10;;;;;;6071222;23;88218;-76
2021/12/25 01:55:39;;;;;;;2.90;0.95;;;-1.10;73.30;;;;;;6119882;23;91040;-76
2021/12/25 01:58:07;;;;;;;2.00;1.42;;;-1.10;73.00;;;;;;6094991;23;90791;-76
2021/12/25 02:00:35;;;;;;;1.50;1.08;;;-1.10;73.00;;;;;;6070059;23;90865;-76
2021/12/25 02:03:06;;;;;;;1.55;1.10;;;-1.20;72.50;;;;;;6097051;23;87983;-76
2021/12/25 02:05:34;;;;;;;1.70;0.70;;;-1.20;72.20;;;;;;6070169;23;91206;-76
2021/12/25 02:08:19;;;;;;;1.88;1.00;;;-1.20;72.20;;;;;;6094987;23;90006;-76
2021/12/25 02:10:47;;;;;;;2.47;0.95;;;-1.20;71.60;;;;;;6095210;23;89548;-70
2021/12/25 02:13:14;;;;;;;2.85;1.13;;;-1.20;71.70;;;;;;6095440;23;89332;-71
2021/12/25 02:15:44;;;;;;;1.83;1.00;;;-1.30;71.50;;;;;;6070516;23;89394;-70
2021/12/25 02:18:19;;;;;;;1.77;0.90;;;-1.30;71.60;;;;;;6071603;23;90340;-70
2021/12/25 02:23:36;;;;;;;1.17;0.85;;;-1.30;70.60;;;;;;6070717;23;89235;-70
2021/12/25 02:26:03;;;;;;;1.55;0.65;;;-1.40;70.30;;;;;;6094789;23;90853;-71
2021/12/25 02:28:31;;;;;;;3.50;1.42;;;-1.40;70.20;;;;;;6094716;23;90991;-71
2021/12/25 02:31:03;;;;;;;2.22;1.00;;;-1.40;70.10;;;;;;6070672;23;90809;-70
2021/12/25 02:33:30;;;;;;;1.60;1.13;;;-1.40;69.90;;;;;;6072106;23;89028;-70
2021/12/25 02:35:57;;;;;;;0.80;0.80;;;-1.50;69.60;;;;;;6096700;23;89797;-69
2021/12/25 02:38:27;;;;;;;0.80;0.80;;;-1.50;68.70;;;;;;6071634;23;89976;-70
2021/12/25 02:40:54;;;;;;;4.63;0.95;;;-1.50;68.90;;;;;;6096216;23;90966;-70
2021/12/25 02:43:22;;;;;;;2.42;0.80;;;-1.60;68.90;;;;;;6048432;23;88734;-70
2021/12/25 02:45:50;;;;;;;0.95;0.80;;;-1.60;69.60;;;;;;6096480;23;90788;-70
2021/12/25 02:48:19;;;;;;;1.75;0.80;;;-1.60;68.80;;;;;;6098360;23;87985;-71
2021/12/25 02:50:48;;;;;;;2.55;1.25;;;-1.60;69.20;;;;;;6095633;23;91021;-70
2021/12/25 02:53:16;;;;;;;2.03;0.98;;;-1.70;69.80;;;;;;6072119;23;88980;-69
2021/12/25 02:55:44;;;;;;;2.38;1.08;;;-1.70;70.10;;;;;;6047663;23;91130;-69
2021/12/25 02:58:14;;;;;;;3.08;0.95;;;-1.70;69.20;;;;;;6072271;23;91463;-70
2021/12/25 03:00:46;;;;;;;0.95;0.80;;;-1.70;68.60;;;;;;6071641;23;90910;-69
2021/12/25 03:03:13;;;;;;;2.72;1.00;;;-1.70;68.80;;;;;;6098542;23;87971;-69
2021/12/25 03:05:41;;;;;;;1.33;0.55;;;-1.80;68.80;;;;;;6097479;23;88110;-70
2021/12/25 03:08:10;;;;;;;3.85;1.23;;;-1.80;69.00;;;;;;6071974;23;90877;-70
2021/12/25 03:10:47;;;;;;;2.75;1.15;;;-1.80;69.10;;;;;;6070864;23;88717;-70
2021/12/25 03:15:47;;;;;;;2.53;0.80;;;-1.90;67.80;;;;;;6095379;23;90910;-76
2021/12/25 03:18:20;;;;;;;0.98;0.63;;;-1.90;69.00;;;;;;6096635;23;90801;-76
2021/12/25 03:20:51;;;;;;;1.15;0.73;;;-2.00;68.70;;;;;;6071553;23;91223;-77
2021/12/25 03:23:23;;;;;;;2.33;0.93;;;-2.00;69.30;;;;;;6098117;23;87964;-76
2021/12/25 03:25:52;;;;;;;1.20;1.10;;;-2.00;68.90;;;;;;6098109;23;88243;-77
2021/12/25 03:28:22;;;;;;;0.95;0.70;;;-2.00;68.50;;;;;;6096203;23;91317;-76
2021/12/25 03:30:50;;;;;;;2.58;0.90;;;-2.00;68.40;;;;;;6096018;23;89813;-76
2021/12/25 03:33:20;;;;;;;0.90;0.90;;;-2.00;68.30;;;;;;6095787;23;105445;-76
2021/12/25 03:35:47;;;;;;;1.15;0.82;;;-2.00;68.50;;;;;;6097740;23;89426;-76
2021/12/25 03:38:19;;;;;;;2.65;1.48;;;-2.10;68.50;;;;;;6072094;23;89639;-76
2021/12/25 03:40:48;;;;;;;2.03;0.98;;;-2.10;68.80;;;;;;6096960;23;88720;-77
2021/12/25 03:43:16;;;;;;;2.33;1.20;;;-2.00;68.30;;;;;;6096263;23;88359;-76
2021/12/25 03:45:44;;;;;;;1.00;0.90;;;-2.00;68.90;;;;;;6097793;23;88098;-77
2021/12/25 03:59:07;;;;;;;0.90;0.90;;;-2.20;69.30;;;;;;6098631;23;87807;-76
2021/12/25 04:04:20;;;;;;;3.67;1.00;;;-2.30;69.50;;;;;;6071621;23;89371;-75
2021/12/25 04:09:31;;;;;;;1.90;0.93;;;-2.30;70.20;;;;;;6096892;23;91022;-76
2021/12/25 04:12:05;;;;;;;1.88;0.80;;;-2.30;69.80;;;;;;6096903;23;90672;-74
2021/12/25 04:14:34;;;;;;;2.47;1.00;;;-2.30;69.90;;;;;;6071950;23;88931;-75
2021/12/25 04:17:01;;;;;;;1.75;1.13;;;-2.40;69.90;;;;;;6096418;23;90912;-75
2021/12/25 04:19:30;;;;;;;0.73;0.73;;;-2.40;69.90;;;;;;6071417;23;90988;-75
2021/12/25 04:22:02;;;;;;;0.70;0.70;;;-2.40;70.20;;;;;;6071261;23;90417;-75
2021/12/25 04:24:34;;;;;;;1.52;0.90;;;-2.40;70.40;;;;;;6072216;23;89246;-75
2021/12/25 04:27:02;;;;;;;2.08;1.05;;;-2.40;70.60;;;;;;6071606;23;90336;-74
2021/12/25 04:29:44;;;;;;;1.27;0.90;;;-2.40;70.30;;;;;;6072145;23;88054;-74
2021/12/25 05:04:50;;;;;;;2.03;0.77;;;-2.60;69.80;;;;;;6097561;23;88277;-74
2021/12/25 05:07:23;;;;;;;2.75;0.70;;;-2.60;69.40;;;;;;6071790;23;89081;-74
2021/12/25 05:09:51;;;;;;;1.00;0.93;;;-2.50;70.10;;;;;;6070998;23;90183;-75
2021/12/25 05:12:18;;;;;;;0.60;0.60;;;-2.50;69.60;;;;;;6071367;23;89636;-74
2021/12/25 05:14:45;;;;;;;2.15;0.95;;;-2.50;69.80;;;;;;6071207;23;91617;-74
2021/12/25 05:17:13;;;;;;;2.08;0.82;;;-2.50;69.50;;;;;;6072410;23;89149;-74
2021/12/25 05:19:41;;;;;;;0.65;0.65;;;-2.50;69.50;;;;;;6071407;23;90467;-74
2021/12/25 05:22:08;;;;;;;2.45;0.85;;;-2.50;69.40;;;;;;6046965;23;91071;-74
2021/12/25 05:24:35;;;;;;;0.80;0.80;;;-2.50;69.20;;;;;;6095975;23;88834;-74
2021/12/25 05:27:02;;;;;;;3.40;0.75;;;-2.50;69.70;;;;;;6097775;23;87971;-73
2021/12/25 05:29:33;;;;;;;1.65;0.77;;;-2.60;70.00;;;;;;6121080;23;90633;-74
2021/12/25 05:32:02;;;;;;;0.98;0.60;;;-2.60;70.00;;;;;;6095718;23;89556;-73
2021/12/25 05:34:47;;;;;;;0.70;0.70;;;-2.60;70.90;;;;;;6095899;23;90944;-73
2021/12/25 05:37:22;;;;;;;1.95;0.60;;;-2.60;70.70;;;;;;6097952;23;88024;-73
2021/12/25 05:40:08;;;;;;;2.38;0.90;;;-2.60;70.80;;;;;;6097484;23;88064;-73
2021/12/25 05:42:41;;;;;;;1.45;0.80;;;-2.70;70.70;;;;;;6071883;23;89920;-74
2021/12/25 05:45:10;;;;;;;1.08;0.63;;;-2.70;70.80;;;;;;6095663;23;90474;-73
2021/12/25 05:47:51;;;;;;;1.00;0.88;;;-2.70;70.90;;;;;;6071380;23;89035;-73
2021/12/25 05:50:41;;;;;;;4.40;0.98;;;-2.80;71.70;;;;;;6055065;23;88713;-73
2021/12/25 05:53:23;;;;;;;1.60;0.50;;;-2.80;71.60;;;;;;6071415;23;91234;-69
2021/12/25 05:56:09;;;;;;;1.25;1.00;;;-2.80;71.40;;;;;;6097332;23;87985;-69
2021/12/25 05:58:54;;;;;;;3.45;1.33;;;-2.80;71.70;;;;;;6097638;23;87973;-69
2021/12/25 06:01:21;;;;;;;1.70;0.80;;;-2.90;71.70;;;;;;6097555;23;88045;-69
2021/12/25 06:03:49;;;;;;;2.97;1.13;;;-2.90;72.20;;;;;;6095596;23;90959;-70
2021/12/25 06:06:16;;;;;;;0.95;0.88;;;-2.90;72.30;;;;;;6071618;23;90972;-69
2021/12/25 06:08:43;;;;;;;3.67;1.13;;;-2.90;72.40;;;;;;6073564;23;87552;-69
2021/12/25 06:11:10;;;;;;;2.83;1.00;;;-2.90;72.70;;;;;;6097132;23;88030;-69
2021/12/25 06:13:44;;;;;;;2.28;0.90;;;-3.00;72.00;;;;;;6048646;23;89646;-69
2021/12/25 06:16:12;;;;;;;1.52;0.70;;;-3.00;72.20;;;;;;6072257;23;91169;-69
2021/12/25 06:19:05;;;;;;;0.80;0.80;;;-3.00;72.70;;;;;;6121789;23;89300;-69
2021/12/25 06:21:38;;;;;;;1.33;0.90;;;-3.00;71.90;;;;;;6072089;23;89596;-69
2021/12/25 06:24:31;;;;;;;2.58;0.60;;;-3.00;71.90;;;;;;6097083;23;91136;-69
2021/12/25 06:27:22;;;;;;;0.95;0.90;;;-3.10;71.60;;;;;;6097680;23;88093;-69
2021/12/25 06:30:13;;;;;;;1.70;0.98;;;-3.10;71.60;;;;;;6072223;23;88963;-69
2021/12/25 06:33:00;;;;;;;1.88;1.10;;;-3.10;72.30;;;;;;6037855;23;88044;-69
2021/12/25 06:35:45;;;;;;;1.30;1.20;;;-3.20;71.90;;;;;;6099239;23;87531;-69
2021/12/25 06:38:32;;;;;;;1.20;0.80;;;-3.20;72.10;;;;;;6097491;23;87998;-69
2021/12/25 06:41:08;;;;;;;0.95;0.75;;;-3.20;71.80;;;;;;6096566;23;88082;-69
2021/12/25 06:43:36;;;;;;;1.25;0.95;;;-3.20;71.90;;;;;;6071775;23;90776;-69
2021/12/25 06:46:04;;;;;;;5.40;1.02;;;-3.20;72.00;;;;;;6096313;23;90948;-69
2021/12/25 06:48:31;;;;;;;0.75;0.75;;;-3.20;72.10;;;;;;6098605;23;88286;-69
2021/12/25 06:51:11;;;;;;;1.67;0.80;;;-3.30;71.80;;;;;;6098314;23;87993;-69
2021/12/25 06:53:58;;;;;;;0.88;0.88;;;-3.30;72.20;;;;;;6075761;23;88895;-69
2021/12/25 06:56:53;;;;;;;1.63;0.80;;;-3.30;72.30;;;;;;6072198;23;90991;-72
2021/12/25 06:59:25;;;;;;;2.95;0.98;;;-3.30;72.00;;;;;;6049173;23;90891;-73
2021/12/25 07:01:52;;;;;;;0.68;0.68;;;-3.30;73.40;;;;;;6072805;23;88071;-74
2021/12/25 07:04:38;;;;;;;0.55;0.55;;;-3.30;72.70;;;;;;6098594;23;88511;-74
2021/12/25 07:07:39;;;;;;;1.10;0.65;;;-3.30;72.50;;;;;;6071990;23;89526;-73
2021/12/25 07:10:38;;;;;;;4.38;1.23;;;-3.40;72.90;;;;;;6070972;23;88906;-73
2021/12/25 07:13:19;;;;;;;1.38;1.25;;;-3.40;73.00;;;;;;6121636;23;89145;-74
2021/12/25 07:16:06;;;;;;;1.38;1.13;;;-3.40;73.00;;;;;;6037994;23;88423;-73
2021/12/25 07:19:06;;;;;;;1.83;1.00;;;-3.40;73.10;;;;;;6015535;23;88347;-73
2021/12/25 07:21:53;;;;;;;1.52;0.80;;;-3.40;73.00;;;;;;6032685;23;88117;-73
2021/12/25 07:24:40;;;;;;;0.80;0.80;;;-3.40;72.90;;;;;;6072436;23;89128;-73
2021/12/25 07:27:25;;;;;;;1.08;0.85;;;-3.40;73.00;;;;;;6098542;23;88046;-74
2021/12/25 07:29:56;;;;;;;1.30;0.75;;;-3.40;72.90;;;;;;6072708;23;90561;-74
2021/12/25 07:32:23;;;;;;;1.98;0.80;;;-3.40;73.60;;;;;;6098158;23;89923;-74
2021/12/25 07:34:50;;;;;;;2.30;1.20;;;-3.50;73.40;;;;;;6096911;23;87923;-74
2021/12/25 07:37:18;;;;;;;1.20;1.05;;;-3.40;73.70;;;;;;6097589;23;92775;-74
2021/12/25 07:39:46;;;;;;;2.85;1.00;;;-3.40;73.60;;;;;;6097585;23;88679;-73
2021/12/25 07:42:13;;;;;;;2.35;0.90;;;-3.50;73.60;;;;;;6098179;23;88373;-74
2021/12/25 07:45:04;;;;;;;1.65;0.70;;;-3.50;73.80;;;;;;6098648;23;87885;-73
2021/12/25 07:47:36;;;;;;;4.32;1.10;;;-3.50;73.70;;;;;;6098847;23;88065;-74
2021/12/25 07:50:04;;;;;;;3.92;1.00;;;-3.50;73.60;;;;;;6097144;23;88680;-74
2021/12/25 07:52:31;;;;;;;1.95;1.08;;;-3.50;73.40;;;;;;6095982;23;92389;-74
2021/12/25 07:54:58;;;;;;;2.17;1.10;;;-3.50;73.60;;;;;;6096529;23;91614;-73
2021/12/25 07:57:25;;;;;;;2.65;1.33;;;-3.50;74.00;;;;;;6095398;23;92416;-74
2021/12/25 07:59:52;;;;;;;0.85;0.80;;;-3.50;73.80;;;;;;6044988;23;95839;-73
2021/12/25 08:02:19;;;;;;;2.90;1.52;;;-3.50;74.00;;;;;;6093782;23;94857;-73
2021/12/25 08:04:47;;;;;;;3.20;1.58;;;-3.50;74.00;;;;;;6095538;23;92452;-74
2021/12/25 08:07:13;;;;;;;1.60;1.50;;;-3.40;74.20;;;;;;6069402;23;92422;-74
2021/12/25 08:09:42;;;;;;;1.60;1.10;;;-3.50;74.40;;;;;;6095417;23;92973;-75
2021/12/25 08:12:09;;;;;;;3.33;1.13;;;-3.40;74.40;;;;;;6093691;23;92710;-74
2021/12/25 08:14:37;;;;;;;4.90;1.20;;;-3.40;74.30;;;;;;6069910;23;92492;-74
2021/12/25 08:17:04;;;;;;;3.30;1.05;;;-3.40;74.10;;;;;;6069379;23;92471;-74
2021/12/25 08:19:49;;;;;;;1.15;1.10;;;-3.40;74.40;;;;;;6096019;23;92042;-74
2021/12/25 08:22:35;;;;;;;0.82;0.82;;;-3.40;74.60;;;;;;6073468;23;92366;-74
2021/12/25 08:25:21;;;;;;;1.40;1.23;;;-3.40;74.70;;;;;;6095392;23;92517;-74
2021/12/25 08:28:20;;;;;;;1.85;1.00;;;-3.40;74.10;;;;;;6044222;23;94930;-74
2021/12/25 08:31:19;;;;;;;0.88;0.88;;;-3.40;74.00;;;;;;6045855;23;92903;-73
2021/12/25 08:33:52;;;;;;;3.43;0.90;;;-3.40;74.20;;;;;;6095445;23;92731;-74
2021/12/25 08:36:38;;;;;;;0.95;0.80;;;-3.30;73.80;;;;;;6095686;23;92276;-75
2021/12/25 08:39:06;;;;;;;1.27;0.93;;;-3.30;73.70;;;;;;6069313;23;92449;-73
2021/12/25 08:41:34;;;;;;;1.67;0.85;;;-3.30;73.70;;;;;;6094774;23;92916;-74
2021/12/25 08:44:08;;;;;;;2.70;0.90;;;-3.20;74.00;;;;;;6069123;23;102818;-74
2021/12/25 08:47:09;;;;;;;0.90;0.77;;;-3.10;73.30;;;;;;6095992;23;91570;-74
2021/12/25 08:49:29;;;;;;;5.88;1.10;;;-3.10;73.90;;;;;;6093663;23;92956;-74
2021/12/25 08:51:58;;;;;;;1.42;1.30;;;-3.00;73.00;;;;;;6095231;23;102983;-75
2021/12/25 08:54:26;;;;;;;1.70;0.98;;;-3.00;72.50;;;;;;6093703;23;94784;-75
2021/12/25 08:56:53;;;;;;;2.08;1.80;;;-2.90;72.20;;;;;;6094001;23;92848;-75
2021/12/25 08:59:20;;;;;;;3.53;1.08;;;-2.90;72.10;;;;;;6118273;23;92491;-75
2021/12/25 09:01:47;;;;;;;1.98;1.10;;;-2.80;72.40;;;;;;6095067;23;93103;-75
2021/12/25 09:04:15;;;;;;;3.55;1.00;;;-2.80;72.00;;;;;;6095167;23;92711;-75
2021/12/25 09:06:42;;;;;;;1.20;1.10;;;-2.70;72.00;;;;;;6093646;23;92420;-75
2021/12/25 09:09:09;;;;;;;2.55;1.10;;;-2.70;71.90;;;;;;6094921;23;92434;-74
2021/12/25 09:11:37;;;;;;;2.83;1.23;;;-2.70;71.90;;;;;;6118642;23;93321;-72
2021/12/25 09:14:05;;;;;;;3.38;1.10;;;-2.60;72.30;;;;;;6095258;23;92374;-74
2021/12/25 09:16:32;;;;;;;2.58;1.10;;;-2.60;71.80;;;;;;6095370;23;92362;-74
2021/12/25 09:19:00;;;;;;;2.47;1.20;;;-2.50;71.90;;;;;;6092594;23;94927;-74
2021/12/25 09:21:27;;;;;;;2.35;1.27;;;-2.50;71.40;;;;;;6044871;23;95225;-74
2021/12/25 09:23:54;;;;;;;1.58;1.20;;;-2.40;71.20;;;;;;6069645;23;92764;-74
2021/12/25 09:26:21;;;;;;;1.70;1.10;;;-2.40;70.40;;;;;;6067786;23;107505;-74
2021/12/25 09:28:48;;;;;;;0.80;0.80;;;-2.40;70.70;;;;;;6068994;23;92542;-74
2021/12/25 09:31:16;;;;;;;3.78;1.33;;;-2.30;70.70;;;;;;6069833;23;93017;-74
2021/12/25 09:33:43;;;;;;;2.13;1.02;;;-2.30;70.60;;;;;;6095605;23;92640;-74
2021/12/25 09:36:14;;;;;;;4.80;0.93;;;-2.20;70.70;;;;;;6096506;23;91629;-74
2021/12/25 09:38:41;;;;;;;2.05;0.90;;;-2.20;70.30;;;;;;6069712;23;92476;-75
2021/12/25 09:41:08;;;;;;;3.97;1.38;;;-2.20;69.80;;;;;;6068629;23;95779;-74
2021/12/25 09:43:35;;;;;;;4.30;1.10;;;-2.20;70.70;;;;;;6094028;23;94713;-75
2021/12/25 09:46:02;;;;;;;2.65;1.17;;;-2.10;70.10;;;;;;6118504;23;92432;-75
2021/12/25 09:48:30;;;;;;;3.50;1.25;;;-2.10;69.00;;;;;;6094074;23;92366;-75
2021/12/25 09:50:57;;;;;;;1.95;1.00;;;-2.00;69.40;;;;;;6095195;23;92303;-75
2021/12/25 09:53:26;;;;;;;1.63;0.80;;;-2.00;68.70;;;;;;6069077;23;93986;-75
2021/12/25 09:55:53;;;;;;;3.35;1.20;;;-1.90;69.60;;;;;;6094240;23;92667;-75
2021/12/25 09:58:22;;;;;;;1.33;0.90;;;-1.90;69.00;;;;;;6095407;23;92389;-75
2021/12/25 10:00:51;;;;;;;4.35;1.35;;;-1.90;69.40;;;;;;6118166;23;102354;-75
2021/12/25 10:03:22;;;;;;;1.07;0.97;;;-1.80;68.70;;;;;;6095050;23;92584;-74
2021/12/25 10:05:51;;;;;;;1.10;1.00;;;-1.70;68.70;;;;;;6093437;23;99615;-75
2021/12/25 10:08:24;;;;;;;5.28;1.10;;;-1.70;68.80;;;;;;6092226;23;94859;-75
2021/12/25 10:10:57;;;;;;;1.35;0.77;;;-1.70;68.60;;;;;;6093240;23;95188;-75
2021/12/25 10:13:28;;;;;;;1.13;0.73;;;-1.60;68.00;;;;;;6095097;23;92662;-75
2021/12/25 10:16:17;;;;;;;0.70;0.70;;;-1.60;67.50;;;;;;6069157;23;92480;-75
2021/12/25 10:18:45;;;;;;;2.75;1.08;;;-1.50;67.70;;;;;;6094924;23;92308;-75
2021/12/25 10:21:30;;;;;;;1.55;1.20;;;-1.50;67.70;;;;;;6094599;23;93093;-76
2021/12/25 10:24:07;;;;;;;0.95;0.75;;;-1.40;67.50;;;;;;6094798;23;92778;-76
2021/12/25 10:26:37;;;;;;;3.30;1.00;;;-1.40;67.60;;;;;;6095244;23;92051;-76
2021/12/25 10:29:25;;;;;;;2.22;0.90;;;-1.30;67.90;;;;;;6094771;23;92394;-76
2021/12/25 10:31:58;;;;;;;2.03;1.00;;;-1.30;67.70;;;;;;6092374;23;102107;-75
2021/12/25 10:34:29;;;;;;;1.00;0.95;;;-1.30;67.00;;;;;;6091524;23;95528;-75
2021/12/25 10:37:10;;;;;;;4.45;1.23;;;-1.20;67.00;;;;;;6094893;23;92376;-75
2021/12/25 10:39:38;;;;;;;3.05;1.10;;;-1.20;66.10;;;;;;6094273;23;92391;-76
2021/12/25 10:42:13;;;;;;;4.10;1.20;;;-1.20;65.80;;;;;;6117032;23;92938;-77
2021/12/25 10:44:52;;;;;;;2.58;1.20;;;-1.20;65.10;;;;;;6067936;23;98271;-76
2021/12/25 10:47:22;;;;;;;1.45;1.05;;;-1.20;65.70;;;;;;6117798;23;92357;-76
2021/12/25 10:50:08;;;;;;;4.03;1.10;;;-1.10;66.20;;;;;;6094323;23;92817;-76
2021/12/25 10:52:42;;;;;;;1.70;0.90;;;-1.10;66.00;;;;;;6095112;23;92970;-75
2021/12/25 10:55:12;;;;;;;1.48;0.90;;;-1.00;66.20;;;;;;6094579;23;92852;-75
2021/12/25 10:57:42;;;;;;;0.90;0.90;;;-1.00;66.10;;;;;;6094207;23;92509;-75
2021/12/25 11:00:11;;;;;;;2.25;0.98;;;-1.00;66.20;;;;;;6094526;23;94751;-75
2021/12/25 11:02:40;;;;;;;1.15;0.90;;;-1.00;65.50;;;;;;6095089;23;106109;-75
2021/12/25 11:05:28;;;;;;;1.27;1.00;;;-0.90;65.40;;;;;;6095720;23;92839;-75
2021/12/25 11:08:14;;;;;;;2.72;1.08;;;-0.90;65.10;;;;;;6095815;23;92384;-75
2021/12/25 11:11:07;;;;;;;2.75;1.27;;;-0.90;64.80;;;;;;6095472;23;92426;-75
2021/12/25 11:13:43;;;;;;;1.15;1.02;;;-0.80;65.10;;;;;;6095763;23;92925;-75
2021/12/25 11:16:14;;;;;;;1.13;0.75;;;-0.80;64.60;;;;;;6095695;23;92969;-75
2021/12/25 11:19:09;;;;;;;1.20;0.95;;;-0.80;64.80;;;;;;6096315;23;91947;-75
2021/12/25 11:21:49;;;;;;;2.97;0.98;;;-0.70;64.10;;;;;;6095677;23;92387;-75
2021/12/25 11:24:22;;;;;;;5.15;1.08;;;-0.70;64.00;;;;;;6069662;23;95695;-75
2021/12/25 11:26:55;;;;;;;1.27;0.80;;;-0.70;63.70;;;;;;6094025;23;94816;-75
2021/12/25 11:29:27;;;;;;;2.00;1.00;;;-0.70;63.90;;;;;;6094372;23;92534;-75
2021/12/25 11:31:56;;;;;;;3.28;0.90;;;-0.60;64.90;;;;;;6095525;23;92410;-76
2021/12/25 11:34:27;;;;;;;2.67;0.90;;;-0.60;63.70;;;;;;6069754;23;92539;-77
2021/12/25 11:36:56;;;;;;;1.40;0.80;;;-0.60;63.50;;;;;;6095156;23;92816;-76
2021/12/25 11:39:26;;;;;;;2.40;1.00;;;-0.60;64.50;;;;;;6095710;23;93667;-77
2021/12/25 11:42:00;;;;;;;4.90;1.48;;;-0.40;64.10;;;;;;6095309;23;92581;-77
2021/12/25 11:44:44;;;;;;;5.55;1.10;;;-0.50;63.60;;;;;;6094681;23;94134;-77
2021/12/25 11:47:37;;;;;;;3.67;0.98;;;-0.40;63.70;;;;;;6118769;23;92451;-77
2021/12/25 11:50:40;;;;;;;0.95;0.75;;;-0.40;63.30;;;;;;6095390;23;92411;-77
2021/12/25 11:56:16;;;;;;;4.22;0.93;;;-0.40;63.80;;;;;;6095309;23;93238;-77
2021/12/25 11:58:42;;;;;;;3.95;1.00;;;-0.40;62.80;;;;;;6095443;23;92642;-77
2021/12/25 12:01:39;;;;;;;3.15;1.00;;;-0.40;62.60;;;;;;6095758;23;92298;-73
2021/12/25 12:04:26;;;;;;;4.78;1.27;;;-0.30;62.30;;;;;;6095183;23;92356;-72
2021/12/25 12:06:57;;;;;;;2.13;0.98;;;-0.30;62.40;;;;;;6094443;23;93038;-73
2021/12/25 12:09:44;;;;;;;1.38;1.08;;;-0.30;62.90;;;;;;6068692;23;92486;-72
2021/12/25 12:12:32;;;;;;;1.10;0.90;;;-0.20;62.10;;;;;;6049808;23;91696;-73
2021/12/25 12:15:19;;;;;;;1.77;0.73;;;-0.30;61.50;;;;;;6095333;23;92379;-72
2021/12/25 12:18:24;;;;;;;1.67;1.35;;;-0.20;62.30;;;;;;5989052;23;92849;-72
2021/12/25 12:21:17;;;;;;;1.43;1.33;;;-0.10;61.40;;;;;;6002316;23;95804;-72
2021/12/25 12:26:45;;;;;;;0.95;0.90;;;-0.10;61.30;;;;;;6095739;23;92273;-72
2021/12/25 12:29:13;;;;;;;1.23;0.80;;;-0.10;61.70;;;;;;6095410;23;92994;-71
2021/12/25 12:31:47;;;;;;;0.80;0.80;;;-0.10;61.20;;;;;;6095387;23;92789;-71
2021/12/25 12:34:29;;;;;;;1.00;0.90;;;-0.10;61.10;;;;;;6118968;23;92409;-71
2021/12/25 12:37:15;;;;;;;2.25;1.10;;;-0.10;61.10;;;;;;6094020;23;92417;-71
2021/12/25 12:40:04;;;;;;;1.88;0.93;;;-0.10;60.80;;;;;;6096199;23;92306;-71
2021/12/25 12:42:44;;;;;;;0.52;0.50;;;0.00;61.60;;;;;;6093720;23;94781;-71
2021/12/25 12:45:20;;;;;;;3.13;1.23;;;0.00;61.30;;;;;;6095428;23;92336;-71
2021/12/25 12:48:14;;;;;;;1.98;0.88;;;0.10;61.60;;;;;;6093997;23;95407;-71
2021/12/25 12:50:51;;;;;;;3.03;0.88;;;0.10;60.30;;;;;;6061616;23;94049;-73
2021/12/25 12:53:20;;;;;;;2.90;1.13;;;0.10;60.90;;;;;;6069145;23;94220;-72
2021/12/25 12:55:50;;;;;;;1.35;0.88;;;0.10;60.40;;;;;;6094445;23;92425;-72
2021/12/25 12:58:23;;;;;;;1.45;0.90;;;0.10;60.10;;;;;;6093582;23;92536;-72
2021/12/25 13:00:56;;;;;;;1.60;1.00;;;0.10;60.30;;;;;;6095462;23;92882;-72
2021/12/25 13:03:26;;;;;;;1.00;1.00;;;0.10;60.50;;;;;;6095444;23;92711;-73
2021/12/25 13:05:58;;;;;;;0.80;0.80;;;0.10;59.40;;;;;;6093937;23;91630;-72
2021/12/25 13:08:32;;;;;;;1.85;0.80;;;0.10;60.30;;;;;;6095741;23;92425;-73
2021/12/25 13:11:11;;;;;;;1.60;1.10;;;0.10;60.30;;;;;;6095113;23;92868;-72
2021/12/25 13:13:47;;;;;;;3.20;1.05;;;0.10;60.80;;;;;;6093948;23;94787;-72
2021/12/25 13:16:16;;;;;;;1.33;0.90;;;0.10;59.80;;;;;;6093042;23;92934;-73
2021/12/25 13:18:46;;;;;;;2.03;0.90;;;0.10;60.50;;;;;;6093360;23;92785;-72
2021/12/25 13:21:22;;;;;;;1.42;1.00;;;0.20;60.80;;;;;;6068312;23;93212;-72
2021/12/25 13:23:55;;;;;;;2.83;1.58;;;0.10;61.10;;;;;;6117820;23;94180;-72
2021/12/25 13:26:32;;;;;;;3.38;1.80;;;0.20;61.60;;;;;;6093583;23;92413;-72
2021/12/25 13:29:02;;;;;;;1.00;0.90;;;0.20;61.00;;;;;;6094770;23;92404;-72
2021/12/25 13:31:30;;;;;;;3.78;1.13;;;0.30;60.90;;;;;;6095261;23;92221;-73
2021/12/25 13:34:03;;;;;;;1.02;1.02;;;0.20;60.90;;;;;;6094595;23;92293;-73
2021/12/25 13:36:34;;;;;;;2.78;1.33;;;0.20;61.40;;;;;;6095229;23;92984;-72
2021/12/25 13:39:04;;;;;;;3.08;1.70;;;0.20;61.60;;;;;;6093280;23;94810;-72
2021/12/25 13:41:34;;;;;;;4.13;1.17;;;0.30;62.50;;;;;;6094773;23;94019;-77
2021/12/25 13:44:14;;;;;;;1.77;0.98;;;0.30;61.30;;;;;;6094791;23;92834;-76
2021/12/25 13:46:47;;;;;;;2.55;1.20;;;0.20;61.50;;;;;;6095023;23;92369;-76
2021/12/25 13:49:37;;;;;;;1.65;1.00;;;0.20;62.00;;;;;;6094566;23;92440;-77
2021/12/25 13:52:07;;;;;;;6.60;1.20;;;0.20;60.90;;;;;;6094576;23;92879;-77
2021/12/25 13:54:37;;;;;;;3.17;1.65;;;0.20;60.70;;;;;;6094461;23;93769;-77
2021/12/25 13:57:05;;;;;;;2.25;1.40;;;0.20;60.30;;;;;;6095153;23;91699;-77
2021/12/25 13:59:33;;;;;;;4.55;1.35;;;0.10;61.00;;;;;;6092809;23;92437;-77
2021/12/25 14:02:13;;;;;;;3.67;1.40;;;0.10;61.10;;;;;;6094431;23;93226;-77
2021/12/25 14:04:46;;;;;;;1.10;0.77;;;0.10;61.00;;;;;;6093149;23;94834;-77
2021/12/25 14:07:16;;;;;;;2.67;1.10;;;0.00;60.40;;;;;;6094564;23;92282;-76
2021/12/25 14:09:57;;;;;;;1.88;1.13;;;0.10;60.40;;;;;;6094848;23;92376;-77
2021/12/25 14:12:27;;;;;;;2.80;1.10;;;0.10;59.90;;;;;;6091190;23;92969;-76
2021/12/25 14:14:56;;;;;;;4.70;1.17;;;0.10;60.10;;;;;;6094471;23;92648;-76
2021/12/25 14:17:24;;;;;;;1.10;1.00;;;0.00;59.50;;;;;;6043498;23;94624;-76
2021/12/25 14:20:11;;;;;;;2.60;1.15;;;0.00;59.20;;;;;;6092527;23;92496;-76
2021/12/25 14:22:38;;;;;;;3.00;1.35;;;-0.10;59.90;;;;;;6084452;23;92726;-76
2021/12/25 14:25:08;;;;;;;2.75;1.38;;;-0.10;60.50;;;;;;6094008;23;92325;-77
2021/12/25 14:27:35;;;;;;;2.60;1.27;;;-0.10;61.10;;;;;;6094767;23;102772;-76
2021/12/25 14:30:11;;;;;;;2.13;1.30;;;-0.10;61.80;;;;;;6094484;23;94860;-77
2021/12/25 14:32:49;;;;;;;1.65;1.23;;;-0.10;62.00;;;;;;6096132;23;93001;-76
2021/12/25 14:35:18;;;;;;;4.18;1.10;;;0.00;61.90;;;;;;6095619;23;92705;-77
2021/12/25 14:37:47;;;;;;;4.72;1.25;;;-0.10;61.30;;;;;;6096184;23;92364;-77
2021/12/25 14:40:20;;;;;;;2.45;1.38;;;-0.10;61.70;;;;;;6095559;23;92496;-76
2021/12/25 14:42:58;;;;;;;4.43;1.23;;;-0.10;61.70;;;;;;6096076;23;92589;-76
2021/12/25 14:45:26;;;;;;;3.63;1.17;;;-0.20;62.40;;;;;;6095791;23;92806;-76
2021/12/25 14:47:54;;;;;;;1.75;1.20;;;-0.20;62.40;;;;;;6095183;23;91646;-76